Time;durP1;ratioP1;P1;durP2;ratioP2;P2;SDS_P1;SDS_P2;PMS_P1;PMS_P2;Temp;Humidity;BMP_temperature;BMP_pressure;BME280_temperature;BME280_humidity;BME280_pressure;Samples;Min_cycle;Max_cycle;Signal;HPM_P1;HPM_P2
2021/04/25 00:02:28;;;;;;;31.45;13.15;;;;;;;12.38;49.96;99433.94;4343966;80;28566;-86
2021/04/25 00:08:32;;;;;;;27.00;12.28;;;;;;;12.37;50.18;99431.75;4314917;81;28602;-85
2021/04/25 00:14:34;;;;;;;35.78;13.85;;;;;;;12.21;54.51;99418.98;4313625;80;28576;-85
2021/04/25 00:20:36;;;;;;;29.02;12.80;;;;;;;12.02;53.12;99428.97;4306631;80;28582;-85
2021/04/25 00:26:38;;;;;;;30.37;13.85;;;;;;;11.76;57.93;99425.64;4380278;81;28628;-85
2021/04/25 00:32:40;;;;;;;29.70;12.30;;;;;;;11.57;61.45;99418.44;4390456;80;28615;-85
2021/04/25 00:38:44;;;;;;;30.00;12.53;;;;;;;11.79;57.59;99422.48;4360548;81;28597;-85
2021/04/25 00:44:47;;;;;;;31.27;11.90;;;;;;;11.74;58.02;99422.36;4359710;81;28601;-85
2021/04/25 00:50:49;;;;;;;32.00;13.08;;;;;;;12.00;56.59;99425.19;4361280;80;28556;-87
2021/04/25 00:56:54;;;;;;;24.57;11.63;;;;;;;11.50;61.83;99414.17;4364159;80;28931;-87
2021/04/25 01:02:56;;;;;;;32.90;11.50;;;;;;;11.80;57.07;99414.69;4374810;80;28682;-88
2021/04/25 01:08:58;;;;;;;26.42;11.43;;;;;;;11.98;58.69;99413.81;4349154;80;28567;-87
2021/04/25 01:15:00;;;;;;;28.92;12.18;;;;;;;11.67;65.54;99421.11;4329965;81;28627;-87
2021/04/25 01:21:05;;;;;;;31.12;12.30;;;;;;;11.48;67.89;99401.47;4344481;81;28655;-88
2021/04/25 01:27:07;;;;;;;27.02;12.20;;;;;;;11.20;71.12;99406.92;4342318;81;28580;-89
2021/04/25 01:33:09;;;;;;;26.65;12.28;;;;;;;11.40;67.17;99401.27;4366790;81;28681;-85
2021/04/25 01:39:12;;;;;;;26.70;12.28;;;;;;;11.37;66.16;99403.08;4368028;81;28696;-85
2021/04/25 01:45:18;;;;;;;27.35;11.50;;;;;;;11.42;67.21;99395.12;4346815;80;28591;-85
2021/04/25 01:51:20;;;;;;;24.47;12.53;;;;;;;11.30;70.94;99401.28;4339958;81;28587;-84
2021/04/25 01:57:22;;;;;;;28.80;12.53;;;;;;;11.48;66.62;99388.84;4364140;81;28578;-85
2021/04/25 02:03:25;;;;;;;25.57;10.50;;;;;;;11.50;65.81;99390.77;4325786;81;28575;-85
2021/04/25 02:09:27;;;;;;;24.47;11.35;;;;;;;11.46;66.76;99395.50;4315332;80;28580;-85
2021/04/25 02:15:30;;;;;;;35.10;16.23;;;;;;;12.14;61.00;99405.62;4366272;81;28634;-85
2021/04/25 02:21:32;;;;;;;42.70;19.45;;;;;;;11.83;62.75;99388.66;4350226;80;28575;-85
2021/04/25 02:27:35;;;;;;;42.08;20.80;;;;;;;11.67;64.39;99389.59;4369889;81;28618;-84
2021/04/25 02:33:37;;;;;;;50.00;22.50;;;;;;;11.93;61.10;99378.65;4355900;81;28652;-84
2021/04/25 02:39:39;;;;;;;50.20;23.05;;;;;;;11.65;63.71;99378.75;4344333;80;28587;-87
2021/04/25 02:45:41;;;;;;;52.90;24.27;;;;;;;11.52;64.04;99376.55;4335067;81;28636;-86
2021/04/25 02:51:44;;;;;;;47.33;21.45;;;;;;;11.76;61.41;99376.61;4375350;80;28615;-85
2021/04/25 02:57:46;;;;;;;43.73;21.35;;;;;;;11.54;63.56;99374.98;4306385;82;28662;-86
2021/04/25 03:03:48;;;;;;;52.67;23.87;;;;;;;11.52;62.55;99373.05;4367737;81;28624;-86
2021/04/25 03:09:51;;;;;;;48.02;23.25;;;;;;;11.47;65.71;99367.01;4314202;82;28631;-86
2021/04/25 03:15:53;;;;;;;49.15;22.87;;;;;;;11.38;65.61;99362.99;4294592;82;28576;-86
2021/04/25 03:21:55;;;;;;;50.25;22.17;;;;;;;11.46;63.55;99361.84;4352516;80;28599;-86
2021/04/25 03:27:58;;;;;;;47.65;22.27;;;;;;;11.41;62.00;99353.94;4323743;81;28645;-86
2021/04/25 03:34:00;;;;;;;52.45;23.47;;;;;;;11.18;65.23;99360.55;4374250;80;28586;-85
2021/04/25 03:40:06;;;;;;;55.30;24.75;;;;;;;11.32;66.62;99362.55;4364029;81;28571;-86
2021/04/25 03:46:08;;;;;;;45.48;21.33;;;;;;;11.06;67.21;99361.86;4398960;80;28563;-84
2021/04/25 03:52:11;;;;;;;40.23;20.90;;;;;;;11.24;66.46;99362.34;4308800;81;28678;-84
2021/04/25 03:58:12;;;;;;;47.53;21.73;;;;;;;10.96;69.11;99360.52;4273885;82;28582;-87
2021/04/25 04:04:15;;;;;;;47.78;21.30;;;;;;;11.34;65.64;99351.02;4297661;81;28578;-85
2021/04/25 04:10:17;;;;;;;46.50;21.85;;;;;;;11.21;66.81;99357.42;4285230;81;28579;-83
2021/04/25 04:16:19;;;;;;;44.63;21.82;;;;;;;11.07;72.16;99360.81;4267196;82;28579;-82
2021/04/25 04:22:22;;;;;;;46.15;22.37;;;;;;;11.28;67.86;99354.09;4309853;81;28634;-81
2021/04/25 04:28:24;;;;;;;47.48;22.22;;;;;;;11.30;69.95;99362.25;4310013;81;28653;-82
2021/04/25 04:34:26;;;;;;;51.13;23.87;;;;;;;11.64;64.58;99363.64;4312584;81;28564;-81
2021/04/25 04:40:28;;;;;;;44.83;20.82;;;;;;;11.68;64.13;99360.27;4287925;82;28571;-82
2021/04/25 04:46:30;;;;;;;44.30;20.27;;;;;;;11.95;62.49;99366.59;4289051;81;28564;-81
2021/04/25 04:52:32;;;;;;;43.98;21.42;;;;;;;12.09;60.03;99365.05;4307377;81;28645;-81
2021/04/25 04:58:35;;;;;;;49.23;22.73;;;;;;;12.26;58.18;99371.40;4291275;81;28639;-81
2021/04/25 05:04:37;;;;;;;48.38;21.55;;;;;;;12.35;57.98;99373.75;4311841;82;28638;-82
2021/04/25 05:10:39;;;;;;;46.63;22.20;;;;;;;12.43;56.60;99380.11;4381179;80;28657;-83
2021/04/25 05:16:41;;;;;;;44.73;22.15;;;;;;;12.61;55.57;99373.80;4390600;80;28599;-83
2021/04/25 05:22:43;;;;;;;52.78;22.95;;;;;;;12.94;55.49;99368.27;4405529;80;28673;-85
2021/04/25 05:28:45;;;;;;;49.65;21.55;;;;;;;12.68;56.60;99373.66;4345566;81;28643;-85
2021/04/25 05:34:47;;;;;;;45.67;22.07;;;;;;;12.96;56.03;99378.81;4356068;81;28559;-86
2021/04/25 05:40:50;;;;;;;47.40;21.02;;;;;;;13.32;54.24;99376.84;4365272;81;28649;-86
2021/04/25 05:46:52;;;;;;;50.35;22.73;;;;;;;13.23;53.80;99376.41;4384557;80;28659;-84
2021/04/25 05:52:56;;;;;;;46.00;21.07;;;;;;;13.69;52.15;99374.80;4362751;80;28626;-84
2021/04/25 05:58:59;;;;;;;47.55;21.90;;;;;;;13.95;51.46;99374.70;4357877;80;28590;-84
2021/04/25 06:05:02;;;;;;;49.83;24.02;;;;;;;14.07;51.48;99380.88;4380727;80;28597;-83
2021/04/25 06:11:05;;;;;;;43.83;22.40;;;;;;;14.40;51.08;99379.73;4311018;81;28634;-85
2021/04/25 06:17:07;;;;;;;48.98;23.32;;;;;;;14.56;50.32;99370.50;4324570;81;28639;-84
2021/04/25 06:23:10;;;;;;;44.18;20.25;;;;;;;14.89;48.03;99379.61;4297592;81;28574;-84
2021/04/25 06:29:12;;;;;;;35.83;16.10;;;;;;;14.99;47.77;99374.33;4308316;81;28642;-80
2021/04/25 06:35:16;;;;;;;31.52;16.55;;;;;;;15.10;45.35;99375.80;4286265;81;28572;-81
2021/04/25 06:41:18;;;;;;;33.53;14.93;;;;;;;15.19;45.32;99368.87;4298967;81;28677;-83
2021/04/25 06:47:20;;;;;;;31.35;13.35;;;;;;;15.36;44.40;99373.38;4350953;80;28587;-83
2021/04/25 06:53:22;;;;;;;31.35;14.33;;;;;;;15.29;42.74;99366.80;4363022;80;28575;-83
2021/04/25 06:59:24;;;;;;;33.00;14.38;;;;;;;15.36;42.66;99374.20;4347636;80;28600;-82
2021/04/25 07:05:27;;;;;;;27.35;11.95;;;;;;;15.03;43.78;99372.74;4352113;80;28568;-82
2021/04/25 07:11:29;;;;;;;27.82;12.75;;;;;;;15.61;41.42;99368.23;4362672;80;30005;-84
2021/04/25 07:17:31;;;;;;;25.15;11.57;;;;;;;15.97;41.03;99366.40;4351979;80;28626;-83
2021/04/25 07:23:33;;;;;;;22.10;10.18;;;;;;;15.59;39.91;99378.51;4357132;80;28568;-83
2021/04/25 07:29:37;;;;;;;20.52;9.95;;;;;;;15.46;39.53;99378.90;4349112;80;28638;-84
2021/04/25 07:35:40;;;;;;;14.80;7.10;;;;;;;15.75;39.03;99367.80;4363690;80;28571;-83
2021/04/25 07:41:42;;;;;;;16.12;6.78;;;;;;;16.21;35.97;99362.52;4361305;80;28607;-82
2021/04/25 07:47:45;;;;;;;12.15;5.80;;;;;;;16.49;35.32;99368.12;4359852;80;28595;-85
2021/04/25 07:53:50;;;;;;;9.98;4.15;;;;;;;16.88;33.17;99364.79;4337009;80;28616;-83
2021/04/25 07:59:52;;;;;;;9.78;4.20;;;;;;;16.14;29.34;99368.14;4353871;80;28599;-88
2021/04/25 08:05:55;;;;;;;8.15;3.72;;;;;;;16.38;30.90;99353.66;4334741;80;28653;-83
2021/04/25 08:11:58;;;;;;;9.85;3.83;;;;;;;14.67;30.90;99368.21;4320977;80;28591;-81
2021/04/25 08:18:01;;;;;;;7.62;3.95;;;;;;;14.25;31.65;99372.20;4328706;81;28594;-81
2021/04/25 08:24:04;;;;;;;6.53;3.08;;;;;;;14.54;30.78;99360.47;4354158;80;28642;-84
2021/04/25 08:30:09;;;;;;;9.50;3.77;;;;;;;15.23;29.57;99352.39;4358229;81;28602;-88
2021/04/25 08:36:15;;;;;;;7.12;2.67;;;;;;;14.59;31.63;99359.16;4313197;80;28622;-91
2021/04/25 08:42:17;;;;;;;8.40;2.92;;;;;;;15.78;29.55;99348.85;4359102;81;28572;-91
2021/04/25 08:48:22;;;;;;;8.80;3.20;;;;;;;15.30;29.10;99353.02;4334202;80;28569;-92
2021/04/25 08:54:27;;;;;;;7.15;3.02;;;;;;;16.38;28.82;99348.23;4352305;80;28551;-91
2021/04/25 09:00:29;;;;;;;7.42;2.92;;;;;;;16.69;28.64;99335.38;4333507;81;28575;-91
2021/04/25 09:06:32;;;;;;;6.50;2.95;;;;;;;16.41;28.28;99343.66;4344255;81;28623;-91
2021/04/25 09:12:41;;;;;;;6.05;2.85;;;;;;;16.90;27.16;99321.89;4361809;81;28720;-91
2021/04/25 09:18:44;;;;;;;9.38;3.17;;;;;;;16.62;27.93;99336.98;4293744;81;28570;-91
2021/04/25 09:24:47;;;;;;;6.72;3.25;;;;;;;16.40;27.52;99333.05;4319581;80;28606;-92
2021/04/25 09:31:02;;;;;;;4.95;2.30;;;;;;;17.21;26.30;99325.52;4359908;80;28557;-92
2021/04/25 09:37:18;;;;;;;6.67;2.83;;;;;;;17.67;27.92;99312.53;4361629;81;28684;-90
2021/04/25 09:43:40;;;;;;;9.95;3.33;;;;;;;17.98;26.84;99311.73;4606738;76;75125;-91
2021/04/25 09:49:48;;;;;;;8.73;3.65;;;;;;;16.16;27.91;99310.40;4523542;78;28556;-90
2021/04/25 09:55:58;;;;;;;9.43;4.33;;;;;;;17.28;26.89;99298.09;4514786;78;28633;-93
2021/04/25 10:02:09;;;;;;;6.83;3.60;;;;;;;15.38;28.36;99310.30;4436861;78;28624;-91
2021/04/25 10:08:17;;;;;;;9.48;3.83;;;;;;;16.44;27.45;99313.80;4427119;79;28590;-91
2021/04/25 10:14:20;;;;;;;6.78;3.25;;;;;;;16.99;27.55;99306.16;4465035;78;28632;-91
2021/04/25 10:20:24;;;;;;;6.65;3.42;;;;;;;16.12;27.41;99307.91;4483100;78;28578;-87
2021/04/25 10:26:28;;;;;;;6.00;3.12;;;;;;;15.88;27.75;99306.91;4478820;78;28604;-86
2021/04/25 10:32:31;;;;;;;9.70;3.87;;;;;;;16.27;27.05;99297.70;4473985;78;28557;-84
2021/04/25 10:38:37;;;;;;;7.22;2.70;;;;;;;15.80;26.92;99301.44;4485909;78;28550;-86
2021/04/25 10:45:07;;;;;;;5.93;2.60;;;;;;;15.55;27.96;99309.63;4489871;78;28573;-87
2021/04/25 10:51:13;;;;;;;4.78;2.27;;;;;;;14.99;28.24;99301.23;4506771;78;28597;-89
2021/04/25 10:57:15;;;;;;;6.17;2.65;;;;;;;16.01;26.64;99301.06;4500834;78;28570;-88
2021/04/25 11:03:26;;;;;;;4.87;2.45;;;;;;;16.16;26.52;99304.97;4484839;78;28664;-91
2021/04/25 11:09:52;;;;;;;5.72;2.60;;;;;;;16.17;25.80;99307.41;4479108;78;28619;-89
2021/04/25 11:15:56;;;;;;;6.37;2.52;;;;;;;16.06;26.56;99307.06;4512375;78;28671;-87
2021/04/25 11:21:58;;;;;;;5.42;2.62;;;;;;;15.51;26.85;99306.33;4393943;80;28577;-86
2021/04/25 11:28:00;;;;;;;6.22;3.08;;;;;;;16.79;26.17;99300.13;4361658;80;28595;-87
2021/04/25 11:34:03;;;;;;;5.10;2.67;;;;;;;16.04;26.07;99290.24;4365381;80;28572;-89
2021/04/25 11:40:09;;;;;;;5.42;2.65;;;;;;;17.18;24.64;99286.67;4342619;80;28638;-88
2021/04/25 11:46:11;;;;;;;7.67;3.50;;;;;;;17.30;25.50;99272.84;4370515;81;28595;-87
2021/04/25 11:52:25;;;;;;;6.03;3.40;;;;;;;17.68;25.70;99275.30;4355693;80;28594;-84
2021/04/25 11:58:27;;;;;;;6.00;3.15;;;;;;;16.67;25.76;99271.84;4357655;81;28592;-86
2021/04/25 12:04:50;;;;;;;6.80;2.72;;;;;;;17.28;25.76;99273.11;4327118;81;28579;-86
2021/04/25 12:10:54;;;;;;;7.47;2.65;;;;;;;17.46;24.86;99275.03;4363497;81;28618;-86
2021/04/25 12:17:12;;;;;;;7.53;3.17;;;;;;;16.08;27.35;99281.05;4390801;81;28692;-87
2021/04/25 12:23:19;;;;;;;7.08;3.52;;;;;;;15.37;29.55;99285.63;4387197;80;28559;-84
2021/04/25 12:29:39;;;;;;;8.00;3.30;;;;;;;15.79;28.55;99290.33;4413411;80;28577;-84
2021/04/25 12:35:45;;;;;;;6.05;2.95;;;;;;;16.21;27.85;99289.27;4316150;81;28605;-86
2021/04/25 12:41:52;;;;;;;5.30;2.80;;;;;;;16.56;27.22;99288.64;4396224;79;28614;-85
2021/04/25 12:47:54;;;;;;;;;;;;;;;16.10;27.29;99296.52;4404675;79;28567;-83
2021/04/25 12:54:02;;;;;;;8.75;3.40;;;;;;;16.17;27.45;99284.34;4397750;79;20212;-84
2021/04/25 13:00:27;;;;;;;6.53;3.10;;;;;;;16.70;27.13;99276.73;4426060;79;28592;-84
2021/04/25 13:06:31;;;;;;;6.00;3.55;;;;;;;17.11;26.97;99267.92;4405862;79;28568;-82
2021/04/25 13:12:53;;;;;;;6.37;2.80;;;;;;;15.86;27.83;99272.47;4390409;80;28575;-84
2021/04/25 13:18:55;;;;;;;8.15;2.85;;;;;;;15.69;28.43;99288.89;4370965;81;28642;-86
2021/04/25 13:24:58;;;;;;;5.87;3.00;;;;;;;15.31;28.83;99296.41;4382760;80;28610;-85
2021/04/25 13:31:06;;;;;;;6.50;3.20;;;;;;;15.45;28.46;99301.40;4319010;82;28613;-84
2021/04/25 13:37:10;;;;;;;4.55;2.70;;;;;;;15.33;28.16;99292.90;4321768;82;28672;-84
2021/04/25 13:43:13;;;;;;;5.35;2.85;;;;;;;15.14;28.29;99298.39;4301074;82;28578;-83
2021/04/25 13:49:15;;;;;;;3.77;1.95;;;;;;;14.66;28.15;99319.22;4298995;82;28599;-83
2021/04/25 13:55:19;;;;;;;4.03;2.17;;;;;;;15.93;27.78;99292.09;4322007;81;28985;-84
2021/04/25 14:01:22;;;;;;;4.40;2.05;;;;;;;15.41;27.93;99294.88;4340871;81;28671;-84
2021/04/25 14:07:24;;;;;;;3.55;2.12;;;;;;;15.40;27.93;99298.66;4340196;81;28603;-85
2021/04/25 14:13:27;;;;;;;4.33;1.75;;;;;;;16.00;26.92;99294.56;4295403;82;28608;-86
2021/04/25 14:19:30;;;;;;;7.12;2.02;;;;;;;15.31;27.30;99304.53;4353556;81;28595;-85
2021/04/25 14:25:32;;;;;;;4.97;1.62;;;;;;;15.33;27.69;99293.45;4402163;80;28647;-85
2021/04/25 14:31:34;;;;;;;3.27;1.72;;;;;;;15.80;26.80;99290.59;4373245;80;28604;-85
2021/04/25 14:37:38;;;;;;;3.83;2.27;;;;;;;15.42;27.25;99304.63;4370503;81;28628;-85
2021/04/25 14:43:40;;;;;;;4.53;2.17;;;;;;;15.36;26.77;99305.64;4370390;80;28618;-85
2021/04/25 14:49:42;;;;;;;3.22;1.80;;;;;;;13.57;27.71;99311.41;4387702;81;28596;-86
2021/04/25 14:55:46;;;;;;;4.12;2.20;;;;;;;14.95;26.55;99300.63;4386717;80;28557;-84
2021/04/25 15:01:48;;;;;;;3.40;1.80;;;;;;;13.48;28.60;99310.97;4319195;81;28571;-83
2021/04/25 15:07:51;;;;;;;4.08;1.52;;;;;;;13.76;27.87;99320.08;4330352;81;28580;-85
2021/04/25 15:13:53;;;;;;;3.33;1.50;;;;;;;14.16;27.89;99324.49;4380603;80;28576;-82
2021/04/25 15:19:58;;;;;;;4.90;1.80;;;;;;;14.60;26.90;99314.28;4369015;80;28565;-83
2021/04/25 15:26:02;;;;;;;3.47;1.45;;;;;;;13.94;28.44;99321.71;4363769;81;28609;-84
2021/04/25 15:32:05;;;;;;;4.75;1.47;;;;;;;14.19;28.23;99331.30;4339171;81;28576;-84
2021/04/25 15:38:07;;;;;;;2.30;1.30;;;;;;;13.51;28.15;99341.56;4329069;80;28605;-83
2021/04/25 15:44:11;;;;;;;2.27;1.10;;;;;;;13.60;27.45;99329.30;4339672;80;28633;-87
2021/04/25 15:50:14;;;;;;;3.50;1.30;;;;;;;13.16;28.61;99336.58;4334453;80;28618;-85
2021/04/25 15:56:16;;;;;;;5.25;1.22;;;;;;;12.91;29.30;99367.41;4360807;80;28641;-81
2021/04/25 16:02:19;;;;;;;3.72;1.35;;;;;;;12.73;29.49;99363.52;4389348;80;28563;-83
2021/04/25 16:08:22;;;;;;;1.85;1.00;;;;;;;12.23;30.23;99361.06;4329909;80;28618;-86
2021/04/25 16:14:24;;;;;;;2.15;1.20;;;;;;;12.57;29.67;99363.71;4294077;81;28559;-84
2021/04/25 16:20:26;;;;;;;3.40;1.12;;;;;;;13.09;28.59;99375.03;4366610;80;28579;-86
2021/04/25 16:26:28;;;;;;;2.50;1.15;;;;;;;13.04;27.55;99375.74;4359082;80;28599;-84
2021/04/25 16:32:30;;;;;;;2.45;0.90;;;;;;;13.78;27.10;99376.87;4350997;81;28666;-84
2021/04/25 16:38:33;;;;;;;3.25;1.15;;;;;;;12.69;27.64;99385.55;4341630;80;28609;-86
2021/04/25 16:44:35;;;;;;;3.70;1.25;;;;;;;12.07;28.55;99380.64;4361293;80;28629;-85
2021/04/25 16:50:38;;;;;;;3.10;1.17;;;;;;;11.95;27.98;99384.11;4361711;80;28646;-84
2021/04/25 16:56:42;;;;;;;4.15;1.20;;;;;;;12.58;27.39;99378.29;4354907;81;28674;-86
2021/04/25 17:02:44;;;;;;;4.85;1.20;;;;;;;12.92;26.95;99377.14;4339956;80;28573;-85
2021/04/25 17:08:46;;;;;;;2.92;1.00;;;;;;;12.36;27.78;99380.23;4369350;80;28585;-86
2021/04/25 17:14:50;;;;;;;4.72;1.55;;;;;;;11.69;27.70;99396.11;4365246;80;28688;-87
2021/04/25 17:20:52;;;;;;;3.90;1.15;;;;;;;12.17;27.63;99388.13;4352733;80;28575;-86
2021/04/25 17:26:54;;;;;;;4.33;1.05;;;;;;;11.79;27.04;99404.97;4356382;81;28579;-84
2021/04/25 17:32:57;;;;;;;2.95;1.40;;;;;;;11.87;26.96;99410.03;4354473;81;28613;-83
2021/04/25 17:39:01;;;;;;;3.20;1.47;;;;;;;12.02;26.78;99415.02;4362197;80;28589;-83
2021/04/25 17:45:07;;;;;;;2.40;1.15;;;;;;;11.38;27.60;99420.33;4391705;80;28562;-84
2021/04/25 17:51:10;;;;;;;3.67;1.40;;;;;;;10.72;28.13;99435.66;4382566;80;28618;-85
2021/04/25 17:57:16;;;;;;;9.48;3.55;;;;;;;11.01;28.52;99435.98;4395145;80;28602;-83
2021/04/25 18:03:18;;;;;;;4.00;1.40;;;;;;;10.72;29.17;99457.71;4383859;80;28622;-83
2021/04/25 18:09:20;;;;;;;6.03;1.30;;;;;;;10.82;29.33;99450.47;4377903;80;28634;-84
2021/04/25 18:15:25;;;;;;;3.33;1.22;;;;;;;10.48;30.02;99457.52;4380236;80;28621;-84
2021/04/25 18:21:29;;;;;;;4.15;1.40;;;;;;;10.44;30.32;99463.86;4240007;82;28612;-81
2021/04/25 18:27:36;;;;;;;3.02;1.35;;;;;;;10.59;30.09;99466.72;4371987;80;28634;-86
2021/04/25 18:33:40;;;;;;;2.22;1.10;;;;;;;10.15;30.78;99477.36;4362316;80;28628;-83
2021/04/25 18:39:45;;;;;;;4.45;1.42;;;;;;;10.31;30.75;99495.66;4365646;80;28678;-82
2021/04/25 18:45:48;;;;;;;6.17;1.75;;;;;;;10.06;31.08;99492.13;4312302;82;28652;-82
2021/04/25 18:51:50;;;;;;;3.05;1.60;;;;;;;9.95;31.13;99498.48;4319569;80;28599;-85
2021/04/25 18:57:55;;;;;;;6.58;1.70;;;;;;;10.11;31.47;99499.84;4317695;81;28684;-85
2021/04/25 19:03:59;;;;;;;6.75;2.10;;;;;;;10.00;31.96;99504.02;4338653;81;28591;-83
2021/04/25 19:10:05;;;;;;;6.97;2.35;;;;;;;9.36;33.29;99499.88;4353575;82;29176;-86
2021/04/25 19:16:08;;;;;;;8.60;2.65;;;;;;;9.40;33.85;99505.66;4328361;82;28637;-85
2021/04/25 19:22:11;;;;;;;6.28;2.35;;;;;;;9.52;33.90;99503.11;4313073;81;28627;-86
2021/04/25 19:28:16;;;;;;;5.83;2.47;;;;;;;10.00;33.23;99505.36;4312022;82;28623;-84
2021/04/25 19:34:19;;;;;;;6.95;2.90;;;;;;;9.12;35.50;99518.33;4387681;80;28593;-82
2021/04/25 19:40:23;;;;;;;9.43;3.62;;;;;;;8.94;36.13;99518.95;4373848;80;28580;-87
2021/04/25 19:46:26;;;;;;;7.35;3.72;;;;;;;8.64;36.81;99526.92;4336652;80;28594;-84
2021/04/25 19:52:29;;;;;;;10.08;3.77;;;;;;;8.45;37.87;99522.34;4338932;80;28645;-86
2021/04/25 19:58:32;;;;;;;11.35;4.30;;;;;;;8.71;38.02;99522.09;4342620;80;28652;-87
2021/04/25 20:04:35;;;;;;;11.38;4.50;;;;;;;8.33;39.22;99522.12;4333571;80;28594;-88
2021/04/25 20:10:39;;;;;;;8.98;3.37;;;;;;;8.65;38.72;99528.57;4353741;81;28651;-83
2021/04/25 20:16:41;;;;;;;10.38;3.50;;;;;;;8.84;38.70;99519.39;4297165;81;28704;-85
2021/04/25 20:22:47;;;;;;;10.70;3.98;;;;;;;8.57;39.74;99519.92;4335485;82;28611;-86
2021/04/25 20:28:48;;;;;;;9.65;4.03;;;;;;;8.51;40.28;99518.89;4331550;82;28630;-84
2021/04/25 20:34:50;;;;;;;8.35;3.67;;;;;;;8.22;41.52;99517.67;4334257;82;28572;-85
2021/04/25 20:40:52;;;;;;;6.45;2.95;;;;;;;8.46;41.67;99521.31;4310141;82;28662;-83
2021/04/25 20:46:55;;;;;;;9.55;2.90;;;;;;;8.65;40.90;99517.04;4389708;80;28569;-85
2021/04/25 20:52:58;;;;;;;7.00;2.92;;;;;;;8.41;41.62;99518.44;4387796;80;28617;-84
2021/04/25 20:59:00;;;;;;;6.85;2.77;;;;;;;8.52;41.79;99521.87;4405041;80;28573;-83
2021/04/25 21:05:05;;;;;;;7.15;2.52;;;;;;;8.28;42.10;99521.42;4316915;81;28579;-84
2021/04/25 21:11:07;;;;;;;9.97;3.40;;;;;;;7.98;42.76;99517.75;4375253;80;28670;-84
2021/04/25 21:17:12;;;;;;;6.87;3.27;;;;;;;8.02;42.62;99525.69;4398617;79;28563;-84
2021/04/25 21:23:14;;;;;;;9.10;2.90;;;;;;;8.01;42.02;99524.03;4398502;79;28611;-82
2021/04/25 21:29:16;;;;;;;7.58;3.50;;;;;;;7.87;43.83;99522.36;4441138;79;28677;-84
2021/04/25 21:35:21;;;;;;;10.90;3.72;;;;;;;7.75;43.93;99522.10;4399193;81;28555;-84
2021/04/25 21:41:23;;;;;;;9.93;3.33;;;;;;;7.65;43.93;99515.77;4399291;81;44821;-84
2021/04/25 21:47:25;;;;;;;7.67;3.12;;;;;;;7.43;44.91;99515.89;4390790;81;28647;-83
2021/04/25 21:53:27;;;;;;;11.33;3.55;;;;;;;7.30;46.39;99522.52;4364460;81;28592;-84
2021/04/25 21:59:29;;;;;;;9.05;3.47;;;;;;;7.21;47.44;99519.19;4385495;80;28628;-84
2021/04/25 22:05:33;;;;;;;7.15;2.90;;;;;;;6.94;48.86;99514.51;4364776;81;28572;-85
2021/04/25 22:11:37;;;;;;;10.93;3.37;;;;;;;6.72;50.74;99512.39;4411151;80;28565;-84
2021/04/25 22:17:40;;;;;;;6.83;3.08;;;;;;;6.58;52.20;99511.45;4400400;80;28582;-85
2021/04/25 22:23:44;;;;;;;9.05;3.60;;;;;;;6.51;52.61;99510.06;4404738;80;28593;-84
2021/04/25 22:29:46;;;;;;;8.73;3.22;;;;;;;6.24;54.36;99506.34;4351380;81;28550;-85
2021/04/25 22:35:52;;;;;;;7.53;3.00;;;;;;;6.14;54.21;99505.30;4350057;81;28610;-84
2021/04/25 22:41:56;;;;;;;8.85;3.42;;;;;;;6.19;53.07;99500.73;4333258;81;28571;-84
2021/04/25 22:47:59;;;;;;;9.28;3.87;;;;;;;6.09;54.96;99491.22;4368186;81;28627;-85
2021/04/25 22:54:02;;;;;;;10.18;4.22;;;;;;;6.14;53.23;99480.78;4328436;80;28569;-84
2021/04/25 23:00:11;;;;;;;13.08;4.12;;;;;;;6.07;53.32;99492.42;4347790;81;43231;-84
2021/04/25 23:06:14;;;;;;;10.95;3.92;;;;;;;6.12;54.14;99497.50;4325346;80;28603;-85
2021/04/25 23:12:16;;;;;;;10.95;4.90;;;;;;;5.86;56.37;99491.36;4356696;81;28572;-84
2021/04/25 23:18:18;;;;;;;11.45;5.25;;;;;;;5.74;55.98;99480.34;4300607;81;28596;-84
2021/04/25 23:24:20;;;;;;;10.00;4.37;;;;;;;5.54;58.22;99484.13;4336380;81;28584;-84
2021/04/25 23:30:22;;;;;;;13.08;4.83;;;;;;;5.51;59.91;99477.81;4354712;81;28607;-84
2021/04/25 23:36:24;;;;;;;17.65;6.33;;;;;;;5.50;59.85;99478.83;4349225;80;28605;-85
2021/04/25 23:42:26;;;;;;;15.60;6.12;;;;;;;5.54;56.62;99480.13;4386319;80;44043;-85
2021/04/25 23:48:28;;;;;;;16.65;6.00;;;;;;;5.41;57.84;99478.12;4354871;80;28569;-84
2021/04/25 23:54:30;;;;;;;15.23;6.25;;;;;;;5.38;57.91;99483.31;4337789;80;28572;-85
